Weather at Rady Childrens Hospital Helipad

Public forecast

Using degrees Fahrenheit for public forecast. Weather courtesy of forecast.io.

Closest aviation weather report (METAR) to Rady Childrens Hospital Helipad

Closest report is Montgomery-Gibbs Executive Airport, 1.2 nm (2.2 km) NNE.

2024/07/19 04:53 (retrieved 57 minutes ago)

KMYF 190453Z AUTO 24003KT 10SM CLR 17/16 A2999 RMK AO2 SLP151 T01670156

Closest aviation forecast (TAF) to Rady Childrens Hospital Helipad

Forecast is more than 6 hours old.

Closest forecast is Miramar Marine Corps Air Station - Mitscher Field, 4.2 nm (7.8 km) N.

2024/07/18 21:07 Ammendment (retrieved 9 hours ago)

TAF AMD KNKX 1821/1921 25009KT 9999 FEW010 FEW050CB QNH2998INS BECMG 1902/1904 VRB03KT 8000 BR BKN010 QNH2996INS FM191430 VRB03KT 9000 BR SCT010 QNH2998INS FM191600 32005KT 9999 NSW SCT012 QNH2998INS T26/1822Z T18/1913Z